Time;durP1;ratioP1;P1;durP2;ratioP2;P2;SDS_P1;SDS_P2;PMS_P1;PMS_P2;Temp;Humidity;BMP_temperature;BMP_pressure;BME280_temperature;BME280_humidity;BME280_pressure;Samples;Min_cycle;Max_cycle;Signal;HPM_P1;HPM_P2
2022/11/30 05:00:53;;;;;;;36.42;17.35;;;8.00;99.90;;;;;;5658609;23;20056;-68
2022/11/30 05:03:18;;;;;;;38.88;18.30;;;7.90;99.90;;;;;;4915680;29;20028;-68
2022/11/30 05:05:44;;;;;;;40.00;17.63;;;7.90;99.90;;;;;;4916132;29;20036;-68
2022/11/30 05:08:10;;;;;;;38.47;17.83;;;8.00;99.90;;;;;;4916888;29;20028;-68
2022/11/30 05:10:35;;;;;;;39.57;18.53;;;8.00;99.90;;;;;;4912934;29;20511;-68
2022/11/30 05:13:01;;;;;;;35.67;17.87;;;8.00;99.90;;;;;;4897631;29;20112;-68
2022/11/30 05:15:26;;;;;;;36.33;18.10;;;7.90;99.90;;;;;;4920625;23;20020;-72
2022/11/30 05:17:52;;;;;;;35.70;18.17;;;7.90;99.90;;;;;;4916861;29;20280;-73
2022/11/30 05:20:17;;;;;;;40.27;18.07;;;8.00;99.90;;;;;;4916252;29;20024;-72
2022/11/30 05:22:43;;;;;;;40.73;18.30;;;8.00;99.90;;;;;;4917723;29;20481;-72
2022/11/30 05:25:09;;;;;;;38.40;19.00;;;8.00;99.90;;;;;;4901887;29;20031;-72
2022/11/30 05:27:35;;;;;;;36.80;18.35;;;8.10;99.90;;;;;;4915803;29;20040;-73
2022/11/30 05:30:01;;;;;;;35.97;16.55;;;8.10;99.90;;;;;;4908803;29;20036;-73
2022/11/30 05:32:26;;;;;;;32.22;17.30;;;8.10;99.90;;;;;;4898657;29;20029;-73
2022/11/30 05:34:52;;;;;;;35.80;18.03;;;8.00;99.90;;;;;;4894110;29;20029;-72
2022/11/30 05:37:18;;;;;;;38.43;19.17;;;8.00;99.90;;;;;;4899681;29;20021;-74
2022/11/30 05:39:44;;;;;;;34.30;17.33;;;8.00;99.90;;;;;;4900233;29;20021;-72
2022/11/30 05:42:09;;;;;;;32.17;17.50;;;7.90;99.90;;;;;;4901176;29;20517;-73
2022/11/30 05:44:35;;;;;;;32.00;16.47;;;8.00;99.90;;;;;;4913271;29;20143;-73
2022/11/30 05:47:00;;;;;;;39.23;18.37;;;8.00;99.90;;;;;;4924915;29;20044;-72
2022/11/30 05:49:26;;;;;;;36.17;18.37;;;8.00;99.90;;;;;;4922040;29;20076;-73
2022/11/30 05:51:51;;;;;;;34.63;18.33;;;7.90;99.90;;;;;;4922474;29;20442;-73
2022/11/30 05:54:17;;;;;;;35.83;19.47;;;8.00;99.90;;;;;;4921491;29;20031;-69
2022/11/30 05:56:42;;;;;;;38.97;20.20;;;8.00;99.90;;;;;;4903102;29;20044;-70
2022/11/30 05:59:10;;;;;;;39.20;18.17;;;8.00;99.90;;;;;;4893644;29;20059;-69
2022/11/30 06:01:35;;;;;;;36.75;18.40;;;8.00;99.90;;;;;;4902675;29;20029;-71
2022/11/30 06:04:04;;;;;;;35.30;19.00;;;8.00;99.90;;;;;;4901368;29;20032;-69
2022/11/30 06:06:30;;;;;;;37.70;17.98;;;8.00;99.90;;;;;;4899777;29;20025;-75
2022/11/30 06:08:56;;;;;;;35.47;18.00;;;8.00;99.90;;;;;;4890739;29;20538;-69
2022/11/30 06:11:21;;;;;;;33.80;16.47;;;8.00;99.90;;;;;;4901121;29;20040;-69
2022/11/30 06:13:47;;;;;;;32.43;17.90;;;8.00;99.90;;;;;;4900455;29;20028;-70
2022/11/30 06:16:13;;;;;;;30.87;17.43;;;8.00;99.90;;;;;;4899875;29;20084;-69
2022/11/30 06:18:38;;;;;;;35.57;17.80;;;7.90;99.90;;;;;;4899949;29;20089;-70
2022/11/30 06:21:09;;;;;;;32.73;17.80;;;8.00;99.90;;;;;;4899962;29;20021;-71
2022/11/30 06:23:35;;;;;;;33.40;18.10;;;7.90;99.90;;;;;;4899491;29;20112;-70
2022/11/30 06:26:09;;;;;;;28.65;15.25;;;7.80;99.90;;;;;;4900672;29;20040;-70
2022/11/30 06:28:35;;;;;;;30.35;15.65;;;7.80;99.90;;;;;;4886565;29;20039;-70
2022/11/30 06:31:03;;;;;;;25.17;14.35;;;7.70;99.90;;;;;;4895145;29;20457;-75
2022/11/30 06:33:29;;;;;;;26.98;14.77;;;7.70;99.90;;;;;;4884313;29;20062;-76
2022/11/30 06:35:55;;;;;;;22.15;12.70;;;7.70;99.90;;;;;;4892462;29;20028;-76
2022/11/30 06:38:21;;;;;;;22.83;13.53;;;7.70;99.90;;;;;;4899717;29;20094;-76
2022/11/30 06:40:47;;;;;;;23.38;12.95;;;7.70;99.90;;;;;;4891232;29;20277;-74
2022/11/30 06:43:13;;;;;;;25.77;13.47;;;7.60;99.90;;;;;;4896431;29;20444;-72
2022/11/30 06:45:38;;;;;;;24.65;13.50;;;7.60;99.90;;;;;;4896253;29;20574;-74
2022/11/30 06:48:04;;;;;;;22.73;13.40;;;7.60;99.90;;;;;;4896139;29;20068;-69
2022/11/30 06:50:30;;;;;;;27.70;13.83;;;7.60;99.90;;;;;;4885130;29;20075;-70
2022/11/30 06:52:56;;;;;;;23.92;13.55;;;7.60;99.90;;;;;;4900291;29;20028;-69
2022/11/30 06:55:22;;;;;;;24.48;14.50;;;7.60;99.90;;;;;;4889727;29;20041;-72
2022/11/30 06:57:48;;;;;;;25.80;13.90;;;7.60;99.90;;;;;;4893685;29;20374;-71
2022/11/30 07:00:15;;;;;;;26.30;14.30;;;7.60;99.90;;;;;;4901040;29;20039;-71
2022/11/30 07:02:40;;;;;;;21.58;13.30;;;7.60;99.90;;;;;;4884366;29;20037;-72
2022/11/30 07:05:06;;;;;;;25.20;14.57;;;7.60;99.90;;;;;;4883818;29;20056;-73
2022/11/30 07:07:32;;;;;;;23.53;13.80;;;7.60;99.90;;;;;;4885423;29;20060;-73
2022/11/30 07:09:58;;;;;;;24.30;13.47;;;7.60;99.90;;;;;;4880828;29;20056;-71
2022/11/30 07:12:24;;;;;;;23.83;14.63;;;7.60;99.90;;;;;;4881122;29;20158;-70
2022/11/30 07:14:52;;;;;;;23.10;13.57;;;7.60;99.90;;;;;;4880679;29;20073;-71
2022/11/30 07:17:18;;;;;;;22.30;13.95;;;7.60;99.90;;;;;;4898560;29;20029;-70
2022/11/30 07:19:45;;;;;;;27.60;13.93;;;7.60;99.90;;;;;;4898933;29;20036;-70
2022/11/30 07:22:11;;;;;;;25.30;14.25;;;7.70;99.90;;;;;;4900852;29;20040;-71
2022/11/30 07:27:21;;;;;;;27.10;14.77;;;7.60;99.90;;;;;;4881518;29;20462;-71
2022/11/30 07:29:47;;;;;;;24.47;13.10;;;7.70;99.90;;;;;;4896242;29;20025;-71
2022/11/30 07:32:13;;;;;;;29.23;14.43;;;7.70;99.90;;;;;;4881133;29;20434;-70
2022/11/30 07:34:39;;;;;;;25.88;14.90;;;7.70;99.90;;;;;;4898731;29;20050;-71
2022/11/30 07:37:04;;;;;;;24.27;14.27;;;7.60;99.90;;;;;;4899351;29;20028;-70
2022/11/30 07:39:30;;;;;;;27.83;14.70;;;7.60;99.90;;;;;;4898761;29;20198;-72
2022/11/30 07:41:56;;;;;;;25.45;14.23;;;7.60;99.90;;;;;;4899398;29;20029;-70
2022/11/30 07:44:21;;;;;;;28.23;14.73;;;7.60;99.90;;;;;;4904024;29;20040;-71
2022/11/30 07:46:47;;;;;;;24.40;13.43;;;7.60;99.90;;;;;;4899204;29;20125;-71
2022/11/30 07:49:12;;;;;;;24.03;14.53;;;7.70;99.90;;;;;;4897400;29;20028;-71
2022/11/30 07:51:38;;;;;;;27.67;14.37;;;7.70;99.90;;;;;;4898676;29;20457;-70
2022/11/30 07:54:04;;;;;;;23.33;13.13;;;7.70;99.90;;;;;;4897201;29;20028;-71
2022/11/30 07:56:29;;;;;;;24.03;13.37;;;7.70;99.90;;;;;;4896513;29;20103;-70
2022/11/30 07:59:00;;;;;;;26.40;14.67;;;7.70;99.90;;;;;;4896937;29;20035;-70
2022/11/30 08:01:28;;;;;;;25.98;15.88;;;7.60;99.90;;;;;;4893197;29;20070;-71
2022/11/30 08:03:54;;;;;;;24.52;14.38;;;7.60;99.90;;;;;;4881715;29;20027;-71
2022/11/30 08:06:22;;;;;;;24.75;15.02;;;7.70;99.90;;;;;;4899928;29;20028;-71
2022/11/30 08:08:50;;;;;;;30.40;15.02;;;7.70;99.90;;;;;;4904768;29;20032;-72
2022/11/30 08:11:18;;;;;;;26.92;15.07;;;7.80;99.90;;;;;;4894375;29;20039;-71
2022/11/30 08:13:44;;;;;;;27.70;14.65;;;7.80;99.90;;;;;;4903137;29;20025;-71
2022/11/30 08:16:15;;;;;;;23.70;14.27;;;7.70;99.90;;;;;;4912868;29;20398;-71
2022/11/30 08:18:41;;;;;;;24.50;14.45;;;7.80;99.90;;;;;;4904394;29;20449;-70
2022/11/30 08:21:09;;;;;;;26.17;14.57;;;7.80;99.90;;;;;;4911913;29;20100;-71
2022/11/30 08:23:38;;;;;;;27.80;14.73;;;7.70;99.90;;;;;;4898363;29;20431;-71
2022/11/30 08:26:15;;;;;;;23.60;14.35;;;7.70;99.90;;;;;;4897094;29;20028;-71
2022/11/30 08:28:41;;;;;;;;;;;7.70;99.90;;;;;;4893010;29;20025;-72
2022/11/30 08:31:10;;;;;;;26.33;14.93;;;7.60;99.90;;;;;;4885747;29;19998;-71
2022/11/30 08:33:36;;;;;;;26.73;14.60;;;7.70;99.90;;;;;;4878812;29;20029;-72
2022/11/30 08:36:20;;;;;;;26.77;14.50;;;7.70;99.90;;;;;;4889201;29;20043;-70
2022/11/30 08:38:46;;;;;;;28.75;13.90;;;7.70;99.90;;;;;;4894028;29;20025;-70
2022/11/30 08:41:15;;;;;;;24.75;14.10;;;7.70;99.90;;;;;;4900638;29;20029;-71
2022/11/30 08:43:41;;;;;;;26.98;14.52;;;7.70;99.90;;;;;;4895634;29;20029;-72
2022/11/30 08:46:09;;;;;;;25.85;14.93;;;7.80;99.90;;;;;;4906870;29;20042;-71
2022/11/30 08:48:35;;;;;;;24.08;15.13;;;7.80;99.90;;;;;;4906625;29;20032;-72
2022/11/30 08:51:03;;;;;;;25.13;13.97;;;7.80;99.90;;;;;;4901146;29;20037;-70
2022/11/30 08:53:29;;;;;;;27.63;14.40;;;7.90;99.90;;;;;;4898829;29;20285;-70
2022/11/30 08:56:00;;;;;;;24.80;14.53;;;7.90;99.90;;;;;;4894197;29;20389;-71
2022/11/30 08:58:28;;;;;;;22.88;13.45;;;7.90;99.90;;;;;;4903444;29;20060;-70
2022/11/30 09:00:54;;;;;;;24.30;13.50;;;8.00;99.90;;;;;;4916072;29;20508;-68
2022/11/30 09:03:20;;;;;;;24.57;13.13;;;8.00;99.90;;;;;;4909891;29;20032;-71
2022/11/30 09:05:45;;;;;;;25.53;13.97;;;8.00;99.90;;;;;;4895995;29;20441;-71
2022/11/30 09:08:11;;;;;;;22.73;13.30;;;7.90;99.90;;;;;;4899949;29;20037;-70
2022/11/30 09:10:37;;;;;;;25.08;13.43;;;7.90;99.90;;;;;;4889836;29;20265;-70
2022/11/30 09:13:02;;;;;;;26.03;13.43;;;8.00;99.90;;;;;;4902189;29;20036;-71
2022/11/30 09:15:28;;;;;;;23.33;12.93;;;8.00;99.90;;;;;;4908991;29;21814;-71
2022/11/30 09:17:54;;;;;;;22.33;13.37;;;8.00;99.90;;;;;;4901747;29;20033;-70
2022/11/30 09:20:19;;;;;;;22.07;13.30;;;8.00;99.90;;;;;;4891175;29;20569;-72
2022/11/30 09:22:45;;;;;;;24.83;12.80;;;8.00;99.90;;;;;;4886371;29;20031;-70
2022/11/30 09:25:10;;;;;;;25.57;13.47;;;7.90;99.90;;;;;;4899262;29;20063;-71
2022/11/30 09:27:36;;;;;;;28.87;14.07;;;7.90;99.90;;;;;;4897969;29;20032;-71
2022/11/30 09:30:01;;;;;;;22.33;13.23;;;7.80;99.90;;;;;;4883968;29;20060;-70
2022/11/30 09:32:28;;;;;;;21.67;12.70;;;7.90;99.90;;;;;;4881630;29;20160;-71
2022/11/30 09:34:53;;;;;;;22.58;13.07;;;8.00;99.90;;;;;;4891837;29;20296;-71
2022/11/30 09:37:19;;;;;;;26.47;13.97;;;7.90;99.90;;;;;;4900033;29;20033;-71
2022/11/30 09:39:45;;;;;;;23.40;12.95;;;8.00;99.90;;;;;;4901741;29;20049;-70
2022/11/30 09:42:16;;;;;;;24.47;13.60;;;8.00;99.90;;;;;;4901083;29;20041;-70
2022/11/30 09:45:00;;;;;;;25.13;13.85;;;7.90;99.90;;;;;;4899696;29;20402;-70
2022/11/30 09:47:38;;;;;;;24.20;12.88;;;7.90;99.90;;;;;;4900123;29;20025;-71
2022/11/30 09:50:19;;;;;;;22.98;12.23;;;8.00;99.90;;;;;;4901703;29;20083;-71
2022/11/30 09:52:52;;;;;;;19.77;12.00;;;7.90;99.90;;;;;;4913756;29;20077;-70
2022/11/30 09:55:43;;;;;;;24.50;13.30;;;8.00;99.90;;;;;;4918601;29;20028;-71
2022/11/30 09:58:26;;;;;;;25.73;14.57;;;8.00;99.90;;;;;;4918536;29;20024;-71
2022/11/30 10:00:51;;;;;;;22.63;12.88;;;8.10;99.90;;;;;;4918349;29;20027;-71
2022/11/30 10:03:18;;;;;;;21.70;12.70;;;8.10;99.90;;;;;;4899866;29;20453;-70
2022/11/30 10:06:07;;;;;;;21.70;12.65;;;8.10;99.90;;;;;;4900720;29;20029;-70
2022/11/30 10:08:47;;;;;;;26.63;12.75;;;8.20;99.90;;;;;;4900828;29;20061;-71
2022/11/30 10:11:35;;;;;;;19.48;12.15;;;8.30;99.90;;;;;;4899188;29;20033;-70
2022/11/30 10:14:01;;;;;;;22.55;13.02;;;8.40;99.90;;;;;;4896421;29;20033;-70
2022/11/30 10:16:59;;;;;;;21.05;11.57;;;8.40;99.90;;;;;;4882488;29;20037;-71
2022/11/30 10:19:40;;;;;;;20.58;11.75;;;8.40;99.90;;;;;;4899280;29;20486;-70
2022/11/30 10:22:15;;;;;;;19.67;12.07;;;8.40;99.90;;;;;;4909526;29;20465;-71
2022/11/30 10:25:16;;;;;;;20.88;11.27;;;8.40;99.90;;;;;;4900948;29;20024;-70
2022/11/30 10:27:58;;;;;;;20.27;12.30;;;8.50;99.90;;;;;;4887841;29;20123;-71
2022/11/30 10:30:29;;;;;;;21.58;12.68;;;8.40;99.90;;;;;;4898712;29;20067;-71
2022/11/30 10:32:59;;;;;;;21.17;12.32;;;8.40;99.90;;;;;;4900393;29;20084;-72
2022/11/30 10:35:42;;;;;;;21.15;12.60;;;8.40;99.90;;;;;;4898764;29;20036;-72
2022/11/30 10:38:24;;;;;;;20.65;13.93;;;8.50;99.90;;;;;;4900225;29;20471;-70
2022/11/30 10:40:55;;;;;;;24.48;12.93;;;8.50;99.90;;;;;;4905257;29;20024;-72
2022/11/30 10:43:37;;;;;;;19.45;12.43;;;8.70;99.90;;;;;;4898681;29;20040;-70
2022/11/30 10:46:04;;;;;;;21.92;13.02;;;8.60;99.90;;;;;;4896165;29;20100;-71
2022/11/30 10:48:29;;;;;;;;;;;8.60;99.90;;;;;;4881758;29;20040;-69
2022/11/30 10:50:55;;;;;;;23.05;12.43;;;8.60;99.90;;;;;;4880020;29;19908;-69
2022/11/30 10:53:21;;;;;;;24.07;13.13;;;8.50;99.90;;;;;;4899827;29;20064;-70
2022/11/30 10:55:55;;;;;;;21.27;12.38;;;8.50;99.90;;;;;;4899393;29;20029;-69
2022/11/30 10:58:28;;;;;;;20.63;11.82;;;8.60;99.90;;;;;;4899072;29;20029;-70
2022/11/30 11:01:05;;;;;;;20.17;11.50;;;8.60;99.90;;;;;;4899695;29;20088;-70
2022/11/30 11:03:31;;;;;;;22.55;13.30;;;8.60;99.90;;;;;;4899619;29;20017;-70
2022/11/30 11:06:06;;;;;;;23.52;13.38;;;8.60;99.90;;;;;;4897890;29;20116;-70
2022/11/30 11:08:31;;;;;;;20.70;12.43;;;8.90;99.90;;;;;;4899552;29;20158;-70
2022/11/30 11:10:57;;;;;;;21.20;12.90;;;8.80;99.90;;;;;;4898230;29;20098;-70
2022/11/30 11:13:41;;;;;;;19.67;11.77;;;8.90;99.90;;;;;;4898822;29;20029;-71
2022/11/30 11:16:09;;;;;;;18.52;10.88;;;9.00;99.90;;;;;;4899835;29;20041;-70
2022/11/30 11:18:49;;;;;;;20.00;10.95;;;9.10;99.90;;;;;;4896876;29;20415;-70
2022/11/30 11:21:18;;;;;;;21.05;12.93;;;9.10;99.90;;;;;;4899314;29;20032;-70
2022/11/30 11:23:45;;;;;;;21.55;12.60;;;9.10;99.90;;;;;;4897946;29;20065;-70
2022/11/30 11:26:28;;;;;;;22.25;11.82;;;9.10;99.90;;;;;;4898604;29;20420;-71
2022/11/30 11:28:58;;;;;;;20.45;12.43;;;9.10;99.90;;;;;;4896519;29;20029;-71
2022/11/30 11:31:45;;;;;;;19.10;11.98;;;9.30;99.90;;;;;;4898896;29;20063;-71
2022/11/30 11:34:30;;;;;;;20.13;11.27;;;9.30;99.90;;;;;;4901092;29;20121;-70
2022/11/30 11:37:11;;;;;;;18.60;11.68;;;9.40;99.90;;;;;;4901741;29;20024;-70
2022/11/30 11:39:36;;;;;;;19.33;12.13;;;9.30;99.90;;;;;;4887256;29;20395;-70
2022/11/30 11:42:03;;;;;;;20.50;12.27;;;9.30;99.90;;;;;;4880999;29;20026;-70
2022/11/30 11:44:30;;;;;;;21.90;12.70;;;9.30;99.90;;;;;;4880655;29;20021;-71
2022/11/30 11:47:06;;;;;;;20.60;13.07;;;9.30;99.90;;;;;;4881149;29;20427;-71
2022/11/30 11:49:35;;;;;;;20.92;12.68;;;9.30;99.90;;;;;;4889507;29;20037;-70
2022/11/30 11:52:04;;;;;;;19.95;11.63;;;9.20;99.90;;;;;;4898086;29;20124;-70
2022/11/30 11:54:55;;;;;;;21.00;12.93;;;9.20;99.90;;;;;;4897737;29;20060;-70
2022/11/30 11:57:33;;;;;;;23.58;13.20;;;9.10;99.90;;;;;;4894977;29;20017;-71
2022/11/30 12:00:25;;;;;;;18.83;11.52;;;9.20;99.90;;;;;;4891646;29;20054;-70
2022/11/30 12:03:12;;;;;;;19.63;12.18;;;9.30;99.90;;;;;;4898788;29;20032;-70
2022/11/30 12:05:48;;;;;;;19.70;11.50;;;9.40;99.90;;;;;;4897598;29;20087;-70
2022/11/30 12:08:37;;;;;;;23.02;13.73;;;9.40;99.90;;;;;;4898799;29;20035;-71
2022/11/30 12:11:23;;;;;;;19.35;11.65;;;9.40;99.90;;;;;;4890849;29;20089;-71
2022/11/30 12:13:49;;;;;;;21.30;12.02;;;9.20;99.90;;;;;;4880661;29;20033;-70
2022/11/30 12:16:35;;;;;;;20.75;13.15;;;9.00;99.90;;;;;;4880007;29;20406;-70
2022/11/30 12:19:14;;;;;;;18.10;11.88;;;9.00;99.90;;;;;;4880195;29;20399;-71
2022/11/30 12:21:58;;;;;;;21.13;13.32;;;8.90;99.90;;;;;;4880191;29;20048;-71
2022/11/30 12:24:54;;;;;;;21.23;12.98;;;9.00;99.90;;;;;;4890145;29;20107;-71
2022/11/30 12:27:24;;;;;;;22.67;13.05;;;9.00;99.90;;;;;;4898252;29;20500;-70
2022/11/30 12:30:01;;;;;;;20.23;12.55;;;9.00;99.90;;;;;;4897003;29;20630;-71
2022/11/30 12:33:01;;;;;;;17.50;11.27;;;9.10;99.90;;;;;;4897781;29;20031;-71
2022/11/30 12:35:53;;;;;;;19.95;12.35;;;9.20;99.90;;;;;;4900846;29;20446;-71
2022/11/30 12:38:36;;;;;;;20.63;11.40;;;9.30;99.90;;;;;;4914581;29;20024;-71
2022/11/30 12:41:34;;;;;;;19.73;11.40;;;9.40;99.90;;;;;;4897991;29;20374;-70
2022/11/30 12:44:42;;;;;;;22.60;12.98;;;9.40;99.90;;;;;;4889565;29;20059;-71
2022/11/30 12:47:30;;;;;;;20.83;12.02;;;9.40;99.90;;;;;;4869174;29;20045;-70
2022/11/30 12:50:24;;;;;;;19.60;11.48;;;9.30;99.90;;;;;;4897098;29;20028;-70
2022/11/30 12:53:22;;;;;;;20.75;12.95;;;9.30;99.90;;;;;;4900773;29;20020;-71
2022/11/30 12:56:06;;;;;;;23.35;12.23;;;9.30;99.90;;;;;;4822577;29;20135;-71
2022/11/30 12:58:38;;;;;;;20.42;11.77;;;9.20;99.90;;;;;;4883922;29;20029;-69
2022/11/30 13:01:15;;;;;;;19.55;11.98;;;9.20;99.90;;;;;;4881802;29;20507;-70
2022/11/30 13:03:54;;;;;;;;;;;9.10;99.90;;;;;;4895061;29;20486;-70
2022/11/30 13:06:26;;;;;;;20.70;12.55;;;9.00;99.90;;;;;;4900121;29;19912;-70
2022/11/30 13:09:10;;;;;;;22.40;13.48;;;9.10;99.90;;;;;;4901960;29;20036;-69
2022/11/30 13:11:39;;;;;;;23.40;13.15;;;9.10;99.90;;;;;;4902543;29;20021;-69
2022/11/30 13:14:20;;;;;;;20.80;12.98;;;9.20;99.90;;;;;;4901883;29;20029;-69
2022/11/30 13:16:49;;;;;;;22.10;13.70;;;9.20;99.90;;;;;;4900696;29;20040;-69
2022/11/30 13:19:34;;;;;;;23.13;13.43;;;9.30;99.90;;;;;;4902398;29;20024;-69
2022/11/30 13:22:08;;;;;;;26.17;14.20;;;9.30;99.90;;;;;;4902322;29;20147;-68
2022/11/30 13:24:43;;;;;;;22.38;13.15;;;9.30;99.90;;;;;;4900761;29;20076;-70
2022/11/30 13:27:22;;;;;;;20.88;13.55;;;9.30;99.90;;;;;;4900045;29;20029;-69
2022/11/30 13:30:19;;;;;;;30.13;16.35;;;9.30;99.90;;;;;;4902151;29;20053;-69
2022/11/30 13:32:45;;;;;;;21.60;13.75;;;9.30;99.90;;;;;;4901446;29;20092;-69
2022/11/30 13:35:36;;;;;;;22.58;13.65;;;9.30;99.90;;;;;;4903023;29;20411;-69
2022/11/30 13:38:04;;;;;;;21.02;12.65;;;9.20;99.90;;;;;;4900965;29;20052;-69
2022/11/30 13:40:30;;;;;;;19.90;12.60;;;9.20;99.90;;;;;;4900794;29;20108;-69
2022/11/30 13:42:56;;;;;;;19.33;13.05;;;9.10;99.90;;;;;;4900585;29;20031;-69
2022/11/30 13:45:39;;;;;;;20.60;12.50;;;9.20;99.90;;;;;;4900190;29;20033;-68
2022/11/30 13:48:18;;;;;;;21.98;13.45;;;9.20;99.90;;;;;;4897574;29;20065;-69
2022/11/30 13:50:47;;;;;;;25.40;14.60;;;9.10;99.90;;;;;;4899027;29;20430;-73
2022/11/30 13:53:20;;;;;;;19.20;12.95;;;9.10;99.90;;;;;;4900835;29;20029;-72
2022/11/30 13:56:17;;;;;;;21.40;13.38;;;9.20;99.90;;;;;;4899817;29;20029;-71
2022/11/30 13:59:23;;;;;;;22.10;14.05;;;9.30;99.90;;;;;;4858911;29;20060;-72
2022/11/30 14:01:50;;;;;;;19.70;12.90;;;9.40;99.90;;;;;;4882335;29;20029;-72
2022/11/30 14:04:19;;;;;;;21.23;13.25;;;9.60;99.90;;;;;;4881542;29;20048;-72
2022/11/30 14:06:55;;;;;;;20.63;12.65;;;9.60;99.90;;;;;;4896797;29;20084;-73
2022/11/30 14:09:36;;;;;;;20.17;12.43;;;9.50;99.90;;;;;;4900297;29;20710;-74
2022/11/30 14:12:36;;;;;;;22.27;13.35;;;9.40;99.90;;;;;;4901166;29;20032;-73
2022/11/30 14:15:37;;;;;;;21.90;13.05;;;9.30;99.90;;;;;;4888852;29;20087;-72
2022/11/30 14:18:09;;;;;;;19.83;12.88;;;9.20;99.90;;;;;;4891095;29;20037;-73
2022/11/30 14:20:48;;;;;;;24.30;13.93;;;9.10;99.90;;;;;;4901946;29;20096;-72
2022/11/30 14:23:26;;;;;;;19.55;12.95;;;9.10;99.90;;;;;;4903122;29;20021;-73
2022/11/30 14:25:55;;;;;;;22.25;13.25;;;9.10;99.90;;;;;;4902888;29;20149;-70
2022/11/30 14:28:33;;;;;;;21.20;13.30;;;9.10;99.90;;;;;;4902839;29;20032;-69
2022/11/30 14:30:59;;;;;;;20.17;13.30;;;9.10;99.90;;;;;;4887750;29;20033;-70
2022/11/30 14:33:37;;;;;;;22.40;13.97;;;9.00;99.90;;;;;;4895897;29;20025;-68
2022/11/30 14:36:05;;;;;;;22.70;14.10;;;9.00;99.90;;;;;;4900220;29;20296;-69
2022/11/30 14:38:31;;;;;;;22.70;13.48;;;9.00;99.90;;;;;;4901208;29;20064;-71
2022/11/30 14:40:57;;;;;;;22.53;14.07;;;9.00;99.90;;;;;;4901649;29;20029;-70
2022/11/30 14:43:23;;;;;;;21.33;13.88;;;9.00;99.90;;;;;;4900715;29;20028;-68
2022/11/30 14:45:57;;;;;;;23.77;14.77;;;8.90;99.90;;;;;;4898816;29;20474;-68
2022/11/30 14:48:23;;;;;;;22.77;14.18;;;9.00;99.90;;;;;;4892086;29;20025;-69
2022/11/30 14:50:52;;;;;;;21.93;13.67;;;9.00;99.90;;;;;;4879610;29;20443;-69
2022/11/30 14:53:52;;;;;;;23.98;13.95;;;9.00;99.90;;;;;;4897990;29;20028;-68
2022/11/30 14:56:44;;;;;;;22.60;13.43;;;8.90;99.90;;;;;;4916272;29;20035;-67
2022/11/30 14:59:31;;;;;;;25.70;13.90;;;9.00;99.90;;;;;;4916572;29;20028;-71
2022/11/30 15:02:00;;;;;;;23.33;14.05;;;9.00;99.90;;;;;;4917713;29;20020;-69
2022/11/30 15:04:26;;;;;;;24.02;15.00;;;8.90;99.90;;;;;;4917906;29;20504;-71
2022/11/30 15:06:53;;;;;;;;;;;8.90;99.90;;;;;;4918043;29;20512;-71
2022/11/30 15:09:22;;;;;;;21.08;13.02;;;8.90;99.90;;;;;;4917775;29;19914;-71
2022/11/30 15:11:49;;;;;;;21.80;13.20;;;8.90;99.90;;;;;;4900372;29;20060;-70
2022/11/30 15:14:15;;;;;;;25.08;13.82;;;8.90;99.90;;;;;;4898171;29;20486;-70
2022/11/30 15:16:52;;;;;;;23.45;14.40;;;8.80;99.90;;;;;;4852841;29;1042249;-69
2022/11/30 15:19:23;;;;;;;25.02;14.07;;;8.90;99.90;;;;;;4879733;29;20031;-70
2022/11/30 15:21:49;;;;;;;22.63;13.07;;;8.80;99.90;;;;;;4880868;29;20089;-70
2022/11/30 15:24:15;;;;;;;23.25;14.45;;;8.90;99.90;;;;;;4895276;29;20067;-71
2022/11/30 15:27:08;;;;;;;23.90;14.10;;;8.90;99.90;;;;;;4886971;29;20447;-70
2022/11/30 15:29:44;;;;;;;20.00;12.52;;;8.90;99.90;;;;;;4878939;29;20129;-72
2022/11/30 15:32:20;;;;;;;24.75;13.82;;;8.80;99.90;;;;;;4892205;29;20020;-72
2022/11/30 15:34:50;;;;;;;23.05;13.90;;;8.80;99.90;;;;;;4897564;29;20029;-69
2022/11/30 15:37:16;;;;;;;23.75;14.32;;;8.70;99.90;;;;;;4891210;29;20022;-68
2022/11/30 15:39:55;;;;;;;23.45;14.93;;;8.80;99.90;;;;;;4916212;29;20020;-69
2022/11/30 15:42:42;;;;;;;28.20;14.93;;;8.70;99.90;;;;;;4894718;29;20036;-71
2022/11/30 15:45:29;;;;;;;26.05;14.00;;;8.60;99.90;;;;;;4899196;29;20032;-74
2022/11/30 15:47:57;;;;;;;24.35;14.70;;;8.60;99.90;;;;;;4899249;29;20057;-73
2022/11/30 15:50:28;;;;;;;20.95;13.40;;;8.60;99.90;;;;;;4897679;29;20052;-73
2022/11/30 15:52:55;;;;;;;25.15;15.60;;;8.60;99.90;;;;;;4897657;29;20099;-73
2022/11/30 15:55:39;;;;;;;;;;;8.60;99.90;;;;;;4899365;29;20036;-76
2022/11/30 15:58:04;;;;;;;26.65;14.90;;;8.60;99.90;;;;;;4880635;29;20405;-74
2022/11/30 16:00:30;;;;;;;24.27;15.07;;;8.60;99.90;;;;;;4880821;29;20033;-74
2022/11/30 16:03:10;;;;;;;27.43;14.43;;;8.50;99.90;;;;;;4879734;29;20144;-74
2022/11/30 16:05:57;;;;;;;26.08;15.00;;;8.50;99.90;;;;;;4895781;29;20036;-75
2022/11/30 16:08:22;;;;;;;26.27;15.38;;;8.60;99.90;;;;;;4901696;29;20036;-74
2022/11/30 16:10:48;;;;;;;28.63;15.50;;;8.50;99.90;;;;;;4910868;29;20028;-75
2022/11/30 16:13:15;;;;;;;26.10;14.40;;;8.50;99.90;;;;;;4904435;29;20025;-71
2022/11/30 16:15:47;;;;;;;26.15;14.15;;;8.50;99.90;;;;;;4915054;29;20066;-71
2022/11/30 16:18:19;;;;;;;25.33;15.50;;;8.50;99.90;;;;;;4906868;29;20032;-72
2022/11/30 16:20:50;;;;;;;24.58;15.00;;;8.50;99.90;;;;;;4899292;29;20024;-75
2022/11/30 16:23:16;;;;;;;25.50;15.30;;;8.50;99.90;;;;;;4897837;29;20029;-74
2022/11/30 16:25:43;;;;;;;27.35;15.38;;;8.40;99.90;;;;;;4897236;29;20490;-74
2022/11/30 16:28:10;;;;;;;28.42;15.65;;;8.40;99.90;;;;;;4897233;29;20024;-74
2022/11/30 16:30:36;;;;;;;24.35;15.57;;;8.40;99.90;;;;;;4899059;29;20025;-75
2022/11/30 16:33:02;;;;;;;28.45;15.55;;;8.50;99.90;;;;;;4899174;29;20051;-74
2022/11/30 16:36:05;;;;;;;26.70;15.65;;;8.40;99.90;;;;;;4899279;29;20486;-74
2022/11/30 16:38:31;;;;;;;26.27;14.85;;;8.50;99.90;;;;;;4898315;29;20024;-74
2022/11/30 16:41:16;;;;;;;26.02;15.07;;;8.50;99.90;;;;;;4893628;29;20459;-72
2022/11/30 16:43:43;;;;;;;27.55;15.30;;;8.40;99.90;;;;;;4885377;29;20029;-73
2022/11/30 16:46:15;;;;;;;29.10;16.13;;;8.40;99.90;;;;;;4885238;29;20033;-72
2022/11/30 16:48:41;;;;;;;26.63;14.82;;;8.40;99.90;;;;;;4886767;29;20033;-71
2022/11/30 16:51:26;;;;;;;26.52;15.38;;;8.40;99.90;;;;;;4880227;29;20021;-70
2022/11/30 16:53:52;;;;;;;33.38;16.20;;;8.40;99.90;;;;;;4879667;29;20029;-71
2022/11/30 16:56:18;;;;;;;28.55;15.60;;;8.40;99.90;;;;;;4886708;29;20036;-70
2022/11/30 16:58:44;;;;;;;35.03;17.87;;;8.30;99.90;;;;;;4897272;29;20032;-70
2022/11/30 17:01:26;;;;;;;30.83;17.08;;;8.30;99.90;;;;;;4898299;29;20104;-70
2022/11/30 17:03:51;;;;;;;26.50;15.40;;;8.40;99.90;;;;;;4897635;29;20039;-71
2022/11/30 17:06:20;;;;;;;26.70;15.23;;;8.40;99.90;;;;;;4894177;29;20033;-70
2022/11/30 17:08:46;;;;;;;27.92;15.00;;;8.30;99.90;;;;;;4895787;29;20486;-70
2022/11/30 17:11:30;;;;;;;28.42;15.52;;;8.30;99.90;;;;;;4897023;29;20144;-71
2022/11/30 17:13:56;;;;;;;27.85;15.75;;;8.30;99.90;;;;;;4898060;29;20119;-70
2022/11/30 17:16:22;;;;;;;31.20;17.38;;;8.40;99.90;;;;;;4916883;23;20060;-69
2022/11/30 17:18:48;;;;;;;31.95;17.30;;;8.40;99.90;;;;;;4877192;29;20037;-67
2022/11/30 17:21:15;;;;;;;29.40;16.87;;;8.30;99.90;;;;;;4877548;29;20029;-68
2022/11/30 17:23:42;;;;;;;27.40;16.30;;;8.30;99.90;;;;;;4877658;29;20028;-68
2022/11/30 17:26:07;;;;;;;32.08;16.45;;;8.30;99.90;;;;;;4881977;29;20029;-68
2022/11/30 17:28:33;;;;;;;30.07;16.10;;;8.30;99.90;;;;;;4897789;29;20039;-69
2022/11/30 17:30:59;;;;;;;26.77;14.57;;;8.30;99.90;;;;;;4898122;29;20443;-69
2022/11/30 17:33:24;;;;;;;29.17;14.87;;;8.30;99.90;;;;;;4896769;29;20592;-67
2022/11/30 17:35:50;;;;;;;27.30;15.03;;;8.30;99.90;;;;;;4896174;29;20028;-67
2022/11/30 17:38:16;;;;;;;29.45;16.30;;;8.30;99.90;;;;;;4900657;29;20085;-69
2022/11/30 17:40:41;;;;;;;28.87;15.53;;;8.20;99.90;;;;;;4900433;29;20032;-67
2022/11/30 17:43:07;;;;;;;34.30;16.47;;;8.20;99.90;;;;;;4900336;29;20316;-68
2022/11/30 17:45:36;;;;;;;27.23;15.60;;;8.20;99.90;;;;;;4882609;29;20483;-67
2022/11/30 17:48:02;;;;;;;29.38;15.45;;;8.20;99.90;;;;;;4887931;29;20499;-66
2022/11/30 17:50:27;;;;;;;25.77;14.97;;;8.20;99.90;;;;;;4910467;29;20041;-67
2022/11/30 17:52:53;;;;;;;31.53;16.77;;;8.10;99.90;;;;;;4882266;29;20072;-68
2022/11/30 17:55:18;;;;;;;33.33;16.93;;;8.10;99.90;;;;;;4891602;29;20051;-68
2022/11/30 17:57:44;;;;;;;28.87;15.67;;;8.10;99.90;;;;;;4902926;29;20737;-67
2022/11/30 18:00:10;;;;;;;23.73;13.60;;;8.20;99.90;;;;;;4903194;29;20033;-67
2022/11/30 18:02:35;;;;;;;26.58;14.60;;;8.10;99.90;;;;;;4901729;29;20107;-67
2022/11/30 18:05:01;;;;;;;29.23;13.57;;;8.00;99.90;;;;;;4899257;29;20037;-67